createdAt,value
2018-05-08T00:01:16.774Z,11.70
2018-05-08T00:03:47.213Z,11.60
2018-05-08T00:06:18.230Z,11.80
2018-05-08T00:08:48.885Z,11.90
2018-05-08T00:11:19.722Z,12.10
2018-05-08T00:13:50.527Z,12.30
2018-05-08T00:16:21.845Z,12.60
2018-05-08T00:18:52.328Z,12.80
2018-05-08T00:21:22.996Z,12.70
2018-05-08T00:23:53.855Z,12.30
2018-05-08T00:26:24.526Z,12.30
2018-05-08T00:28:55.217Z,12.20
2018-05-08T00:31:26.098Z,12.20
2018-05-08T00:33:57.134Z,12.20
2018-05-08T00:36:28.532Z,12.20
2018-05-08T00:38:59.113Z,12.10
2018-05-08T00:41:29.933Z,11.90
2018-05-08T00:44:01.643Z,11.80
2018-05-08T00:46:32.331Z,11.80
2018-05-08T00:49:03.032Z,11.70
2018-05-08T00:51:34.261Z,11.70
2018-05-08T00:54:05.440Z,11.80
2018-05-08T00:56:36.204Z,11.80
2018-05-08T00:59:07.333Z,12.30
2018-05-08T01:01:38.291Z,12.20
2018-05-08T01:04:09.200Z,12.10
2018-05-08T01:06:39.626Z,12.10
2018-05-08T01:09:10.091Z,12.10
2018-05-08T01:11:40.557Z,12.20
2018-05-08T01:14:11.338Z,12.00
2018-05-08T01:16:42.713Z,11.90
2018-05-08T01:19:13.336Z,11.90
2018-05-08T01:21:43.527Z,11.60
2018-05-08T01:24:14.291Z,11.10
2018-05-08T01:26:45.378Z,11.00
2018-05-08T01:29:15.781Z,10.80
2018-05-08T01:31:47.378Z,10.60
2018-05-08T01:34:18.129Z,10.60
2018-05-08T01:36:49.362Z,10.70
2018-05-08T01:39:19.864Z,10.70
2018-05-08T01:41:50.498Z,10.60
2018-05-08T01:44:20.825Z,10.90
2018-05-08T01:46:53.086Z,11.60
2018-05-08T01:49:23.659Z,11.60
2018-05-08T01:51:54.171Z,11.60
2018-05-08T01:54:25.451Z,11.70
2018-05-08T01:56:56.441Z,11.80
2018-05-08T01:59:27.059Z,11.80
2018-05-08T02:01:59.008Z,11.70
2018-05-08T02:04:30.928Z,11.50
2018-05-08T02:07:02.493Z,11.40
2018-05-08T02:09:33.669Z,11.40
2018-05-08T02:12:04.577Z,11.10
2018-05-08T02:14:35.559Z,11.20
2018-05-08T02:17:06.326Z,11.20
2018-05-08T02:19:37.200Z,11.00
2018-05-08T02:22:08.684Z,10.60
2018-05-08T02:24:39.953Z,10.30
2018-05-08T02:27:10.762Z,10.40
2018-05-08T02:29:41.223Z,10.50
2018-05-08T02:32:12.332Z,10.20
2018-05-08T02:34:43.169Z,10.30
2018-05-08T02:37:14.279Z,10.50
2018-05-08T02:39:45.087Z,10.40
2018-05-08T02:42:16.875Z,10.40
2018-05-08T02:44:47.578Z,10.40
2018-05-08T02:47:18.590Z,10.30
2018-05-08T02:49:49.464Z,10.30
2018-05-08T02:52:20.189Z,10.20
2018-05-08T02:54:50.828Z,10.30
2018-05-08T02:57:21.808Z,10.40
2018-05-08T02:59:52.748Z,10.50
2018-05-08T03:02:23.777Z,10.30
2018-05-08T03:04:54.398Z,10.50
2018-05-08T03:07:24.967Z,10.50
2018-05-08T03:09:55.124Z,10.40
2018-05-08T03:12:25.804Z,10.30
2018-05-08T03:14:56.430Z,10.50
2018-05-08T03:17:29.041Z,10.10
2018-05-08T03:19:59.706Z,10.10
2018-05-08T03:22:30.660Z,10.40
2018-05-08T03:25:01.531Z,10.30
2018-05-08T03:27:32.637Z,10.30
2018-05-08T03:30:04.032Z,10.50
2018-05-08T03:32:34.464Z,10.50
2018-05-08T03:35:05.237Z,10.80
2018-05-08T03:37:36.626Z,10.40
2018-05-08T03:40:07.540Z,10.30
2018-05-08T03:42:38.337Z,10.50
2018-05-08T03:45:08.925Z,10.30
2018-05-08T03:47:41.342Z,9.90
2018-05-08T03:50:12.470Z,9.60
2018-05-08T03:52:42.878Z,9.30
2018-05-08T03:55:13.855Z,9.30
2018-05-08T03:57:44.920Z,9.80
2018-05-08T04:00:25.128Z,9.40
2018-05-08T04:06:16.169Z,9.40
2018-05-08T04:08:46.865Z,9.40
2018-05-08T04:11:17.124Z,9.60
2018-05-08T04:13:48.992Z,10.00
2018-05-08T04:16:19.654Z,10.00
2018-05-08T04:18:55.279Z,10.40
2018-05-08T04:21:26.863Z,10.40
2018-05-08T04:23:57.560Z,10.70
2018-05-08T04:26:28.274Z,11.00
2018-05-08T04:28:59.224Z,10.70
2018-05-08T04:31:30.082Z,10.50
2018-05-08T04:34:00.788Z,10.50
2018-05-08T04:36:33.056Z,10.60
2018-05-08T04:39:03.932Z,10.40
2018-05-08T04:41:34.682Z,10.20
2018-05-08T04:44:06.651Z,10.80
2018-05-08T04:46:37.717Z,10.80
2018-05-08T04:49:08.822Z,11.30
2018-05-08T04:51:40.001Z,11.30
2018-05-08T04:54:11.264Z,11.30
2018-05-08T04:56:46.648Z,11.40
2018-05-08T04:59:18.422Z,11.80
2018-05-08T05:01:50.472Z,11.90
2018-05-08T05:04:24.924Z,12.20
2018-05-08T05:07:30.987Z,12.20
2018-05-08T05:10:04.075Z,12.10
2018-05-08T05:12:34.801Z,12.00
2018-05-08T05:15:05.547Z,12.00
2018-05-08T05:18:27.335Z,12.00
2018-05-08T05:20:58.124Z,12.20
2018-05-08T05:23:29.496Z,12.20
2018-05-08T05:26:00.881Z,12.30
2018-05-08T05:28:34.060Z,12.10
2018-05-08T05:31:06.477Z,12.10
2018-05-08T05:37:14.163Z,11.80
2018-05-08T05:39:45.210Z,12.10
2018-05-08T05:42:19.604Z,12.60
2018-05-08T05:45:02.578Z,13.10
2018-05-08T05:47:36.293Z,13.10
2018-05-08T05:50:10.629Z,13.20
2018-05-08T05:52:42.962Z,13.70
2018-05-08T05:55:14.991Z,13.80
2018-05-08T05:57:46.695Z,13.80
2018-05-08T06:00:18.230Z,13.90
2018-05-08T06:03:05.351Z,13.60
2018-05-08T06:05:39.144Z,13.50
2018-05-08T06:08:11.952Z,13.20
2018-05-08T06:11:02.232Z,12.80
2018-05-08T06:13:34.416Z,12.90
2018-05-08T06:16:06.988Z,13.00
2018-05-08T06:18:38.857Z,13.20
2018-05-08T06:21:17.461Z,13.90
2018-05-08T06:26:45.255Z,14.50
2018-05-08T06:29:15.975Z,15.40
2018-05-08T06:31:46.921Z,15.80
2018-05-08T06:34:20.840Z,19.50
2018-05-08T06:36:52.009Z,19.40
2018-05-08T06:39:59.368Z,21.30
2018-05-08T06:45:58.781Z,24.30
2018-05-08T06:51:59.637Z,27.10
2018-05-08T06:54:31.760Z,26.00
2018-05-08T06:57:02.744Z,25.90
2018-05-08T06:59:58.936Z,24.10
2018-05-08T07:02:29.902Z,22.80
2018-05-08T07:05:20.030Z,22.70
2018-05-08T07:07:55.430Z,21.00
2018-05-08T07:10:29.965Z,23.50
2018-05-08T07:13:02.325Z,22.90
2018-05-08T07:15:33.529Z,23.60
2018-05-08T07:21:41.284Z,23.20
2018-05-08T07:24:13.607Z,25.30
2018-05-08T07:26:50.475Z,25.50
2018-05-08T07:29:21.699Z,25.40
2018-05-08T07:31:52.835Z,26.00
2018-05-08T07:34:23.700Z,26.80
2018-05-08T07:37:01.742Z,24.80
2018-05-08T07:39:45.979Z,25.30
2018-05-08T07:42:18.279Z,25.20
2018-05-08T07:44:49.316Z,28.60
2018-05-08T07:48:03.305Z,27.90
2018-05-08T07:50:52.754Z,22.10
2018-05-08T07:53:26.975Z,22.00
2018-05-08T07:56:02.410Z,24.70
2018-05-08T07:58:34.610Z,25.00
2018-05-08T08:01:11.331Z,25.10
2018-05-08T08:03:46.130Z,25.20
2018-05-08T08:06:37.336Z,28.10
2018-05-08T08:09:19.195Z,31.10
2018-05-08T08:11:51.299Z,29.90
2018-05-08T08:17:11.335Z,30.50
2018-05-08T08:19:44.680Z,30.50
2018-05-08T08:22:20.046Z,28.00
2018-05-08T08:28:20.877Z,28.00
2018-05-08T08:33:55.369Z,25.10
2018-05-08T08:36:34.935Z,25.20
2018-05-08T08:39:12.407Z,22.30
2018-05-08T08:41:50.463Z,22.20
2018-05-08T08:44:23.509Z,24.90
2018-05-08T08:46:55.157Z,26.50
2018-05-08T08:49:28.195Z,26.40
2018-05-08T08:51:59.950Z,26.90
2018-05-08T08:54:36.085Z,24.60
2018-05-08T08:57:07.382Z,25.60
2018-05-08T09:00:03.973Z,23.80
2018-05-08T09:02:36.851Z,23.80
2018-05-08T09:05:08.464Z,23.80
2018-05-08T09:07:39.880Z,25.00
2018-05-08T09:10:10.707Z,25.40
2018-05-08T09:12:45.969Z,23.90
2018-05-08T09:15:17.754Z,22.70
2018-05-08T09:17:49.391Z,23.80
2018-05-08T09:20:27.069Z,23.60
2018-05-08T09:22:59.090Z,24.90
2018-05-08T09:25:59.860Z,23.00
2018-05-08T09:28:31.310Z,22.40
2018-05-08T09:31:02.309Z,22.60
2018-05-08T09:33:52.801Z,21.90
2018-05-08T09:36:51.924Z,23.90
2018-05-08T09:39:29.447Z,23.90
2018-05-08T09:42:02.443Z,23.60
2018-05-08T09:44:33.693Z,22.80
2018-05-08T09:47:07.021Z,22.70
2018-05-08T09:49:40.347Z,22.70
2018-05-08T09:52:11.783Z,22.60
2018-05-08T09:54:44.195Z,22.80
2018-05-08T09:57:16.244Z,22.70
2018-05-08T09:59:47.236Z,21.90
2018-05-08T10:02:18.169Z,21.60
2018-05-08T10:04:50.839Z,22.40
2018-05-08T10:07:23.656Z,22.40
2018-05-08T10:09:56.876Z,23.90
2018-05-08T10:12:56.892Z,24.00
2018-05-08T10:15:27.353Z,24.80
2018-05-08T10:18:01.302Z,22.20
2018-05-08T10:21:01.103Z,22.20
2018-05-08T10:23:47.028Z,21.90
2018-05-08T10:26:22.490Z,22.70
2018-05-08T10:28:54.270Z,22.70
2018-05-08T10:31:24.765Z,22.70
2018-05-08T10:34:02.101Z,22.80
2018-05-08T10:37:16.391Z,22.60
2018-05-08T10:39:47.398Z,22.50
2018-05-08T10:42:17.672Z,22.20
2018-05-08T10:49:38.899Z,22.50
2018-05-08T10:52:11.286Z,22.40
2018-05-08T10:54:43.096Z,22.90
2018-05-08T10:57:23.278Z,22.80
2018-05-08T10:59:57.514Z,22.60
2018-05-08T11:02:50.042Z,22.30
2018-05-08T11:05:21.478Z,22.80
2018-05-08T11:07:53.410Z,21.90
2018-05-08T11:11:52.678Z,21.90
2018-05-08T11:14:25.018Z,22.00
2018-05-08T11:16:56.088Z,22.30
2018-05-08T11:19:27.019Z,22.60
2018-05-08T11:22:13.402Z,23.10
2018-05-08T11:24:44.332Z,22.90
2018-05-08T11:27:16.540Z,22.60
2018-05-08T11:29:48.129Z,22.20
2018-05-08T11:32:21.130Z,24.20
2018-05-08T11:34:52.842Z,24.60
2018-05-08T11:37:31.612Z,24.60
2018-05-08T11:40:11.748Z,24.40
2018-05-08T11:42:48.222Z,23.00
2018-05-08T11:45:49.849Z,23.00
2018-05-08T11:48:28.435Z,22.70
2018-05-08T11:51:01.261Z,22.70
2018-05-08T11:53:35.151Z,22.80
2018-05-08T11:56:05.576Z,23.00
2018-05-08T11:58:58.601Z,23.10
2018-05-08T12:01:30.119Z,23.00
2018-05-08T12:04:02.655Z,22.40
2018-05-08T12:06:33.829Z,22.70
2018-05-08T12:09:05.627Z,22.90
2018-05-08T12:11:41.536Z,23.10
2018-05-08T12:14:13.526Z,23.10
2018-05-08T12:16:44.929Z,23.20
2018-05-08T12:22:47.232Z,23.50
2018-05-08T12:25:19.182Z,23.40
2018-05-08T12:28:01.869Z,23.40
2018-05-08T12:30:34.235Z,23.50
2018-05-08T12:33:11.015Z,23.50
2018-05-08T12:35:57.519Z,23.00
2018-05-08T12:38:35.933Z,23.30
2018-05-08T12:41:11.787Z,23.30
2018-05-08T12:43:49.965Z,23.60
2018-05-08T12:46:26.528Z,23.60
2018-05-08T12:49:36.197Z,23.70
2018-05-08T12:52:13.680Z,23.80
2018-05-08T12:55:25.977Z,23.00
2018-05-08T12:57:59.125Z,23.10
2018-05-08T13:00:34.870Z,23.30
2018-05-08T13:03:26.767Z,23.30
2018-05-08T13:09:32.130Z,23.10
2018-05-08T13:12:47.752Z,23.20
2018-05-08T13:15:53.197Z,23.00
2018-05-08T13:18:25.670Z,23.10
2018-05-08T13:20:58.079Z,22.70
2018-05-08T13:23:31.026Z,23.00
2018-05-08T13:49:51.040Z,23.80
2018-05-08T13:52:55.503Z,23.90
2018-05-08T13:55:27.916Z,23.70
2018-05-08T13:58:08.159Z,23.60
2018-05-08T14:00:55.214Z,23.60
2018-05-08T14:03:28.555Z,23.80
2018-05-08T14:06:02.199Z,23.70
2018-05-08T14:08:35.308Z,23.60
2018-05-08T14:14:41.845Z,23.50
2018-05-08T14:20:40.024Z,22.60
2018-05-08T14:23:34.015Z,23.10
2018-05-08T14:26:32.974Z,22.80
2018-05-08T14:29:30.909Z,22.80
2018-05-08T14:32:18.571Z,23.10
2018-05-08T14:35:46.495Z,23.10
2018-05-08T14:38:53.855Z,23.10
2018-05-08T14:42:35.297Z,23.10
2018-05-08T14:45:27.822Z,23.20
2018-05-08T14:48:01.580Z,23.10
2018-05-08T14:53:46.566Z,22.90
2018-05-08T14:56:19.610Z,22.80
2018-05-08T14:59:31.124Z,22.80
2018-05-08T15:02:15.450Z,22.90
2018-05-08T15:04:54.842Z,22.80
2018-05-08T15:07:46.880Z,22.80
2018-05-08T15:10:25.772Z,23.20
2018-05-08T15:13:23.943Z,23.20
2018-05-08T15:19:15.335Z,22.70
2018-05-08T15:21:49.082Z,22.70
2018-05-08T15:24:42.579Z,22.90
2018-05-08T15:30:43.119Z,22.60
2018-05-08T15:33:40.142Z,22.50
2018-05-08T15:36:16.234Z,22.70
2018-05-08T15:38:46.780Z,22.70
2018-05-08T15:41:17.622Z,22.60
2018-05-08T15:46:56.295Z,22.50
2018-05-08T15:49:28.180Z,22.30
2018-05-08T15:54:38.349Z,22.20
2018-05-08T15:57:09.369Z,21.90
2018-05-08T15:59:41.463Z,21.90
2018-05-08T16:02:21.625Z,21.90
2018-05-08T16:05:10.752Z,21.90
2018-05-08T16:07:50.933Z,22.00
2018-05-08T16:10:38.434Z,21.80
2018-05-08T16:13:17.926Z,21.80
2018-05-08T16:15:48.669Z,21.60
2018-05-08T16:18:24.358Z,21.60
2018-05-08T16:21:00.228Z,21.60
2018-05-08T16:23:38.454Z,21.40
2018-05-08T16:26:11.999Z,21.40
2018-05-08T16:29:03.032Z,21.30
2018-05-08T16:31:49.636Z,21.30
2018-05-08T16:35:04.521Z,21.30
2018-05-08T16:44:00.985Z,21.30
2018-05-08T16:49:56.974Z,21.10
2018-05-08T16:52:32.547Z,21.20
2018-05-08T16:55:05.673Z,21.20
2018-05-08T16:57:37.736Z,21.30
2018-05-08T17:00:29.977Z,21.40
2018-05-08T17:03:08.644Z,21.50
2018-05-08T17:05:40.259Z,21.10
2018-05-08T17:08:15.507Z,21.10
2018-05-08T17:10:50.949Z,21.10
2018-05-08T17:13:28.215Z,20.80
2018-05-08T17:16:35.393Z,20.90
2018-05-08T17:19:10.252Z,20.90
2018-05-08T17:21:42.293Z,20.70
2018-05-08T17:24:23.765Z,20.70
2018-05-08T17:26:57.048Z,20.60
2018-05-08T17:29:28.300Z,20.70
2018-05-08T17:32:00.059Z,20.70
2018-05-08T17:34:30.987Z,20.50
2018-05-08T17:37:04.417Z,20.50
2018-05-08T17:39:41.555Z,20.50
2018-05-08T17:42:44.796Z,20.40
2018-05-08T17:45:18.397Z,20.30
2018-05-08T17:48:01.773Z,20.10
2018-05-08T17:50:53.341Z,20.10
2018-05-08T17:53:24.872Z,20.00
2018-05-08T17:55:56.888Z,19.90
2018-05-08T17:58:30.776Z,19.80
2018-05-08T18:01:02.777Z,19.80
2018-05-08T18:03:33.747Z,19.80
2018-05-08T18:06:08.672Z,19.70
2018-05-08T18:08:39.745Z,19.50
2018-05-08T18:11:23.566Z,19.60
2018-05-08T18:14:08.153Z,19.60
2018-05-08T18:16:48.412Z,19.50
2018-05-08T18:19:19.860Z,19.30
2018-05-08T18:21:56.532Z,19.20
2018-05-08T18:24:39.561Z,19.20
2018-05-08T18:27:12.039Z,19.10
2018-05-08T18:29:42.499Z,19.10
2018-05-08T18:32:13.284Z,19.10
2018-05-08T18:34:46.736Z,19.10
2018-05-08T18:37:19.096Z,19.10
2018-05-08T18:39:49.657Z,19.10
2018-05-08T18:42:21.217Z,19.20
2018-05-08T18:45:05.091Z,19.20
2018-05-08T18:47:55.834Z,19.10
2018-05-08T18:54:23.514Z,19.00
2018-05-08T18:56:54.801Z,18.90
2018-05-08T18:59:25.325Z,18.80
2018-05-08T19:01:57.723Z,18.90
2018-05-08T19:04:29.540Z,18.90
2018-05-08T19:07:00.126Z,18.70
2018-05-08T19:09:31.297Z,18.80
2018-05-08T19:12:01.418Z,18.80
2018-05-08T19:14:36.544Z,18.70
2018-05-08T19:17:09.963Z,18.30
2018-05-08T19:20:14.569Z,18.30
2018-05-08T19:22:46.604Z,18.30
2018-05-08T19:25:17.270Z,18.30
2018-05-08T19:27:50.897Z,18.50
2018-05-08T19:30:27.433Z,18.30
2018-05-08T19:33:01.581Z,18.30
2018-05-08T19:35:38.256Z,18.10
2018-05-08T19:38:13.444Z,18.00
2018-05-08T19:40:44.646Z,18.00
2018-05-08T19:43:16.265Z,18.00
2018-05-08T19:45:47.259Z,18.30
2018-05-08T19:48:18.372Z,18.20
2018-05-08T19:50:49.733Z,18.30
2018-05-08T19:53:20.872Z,18.10
2018-05-08T19:55:51.973Z,17.80
2018-05-08T19:58:22.949Z,17.30
2018-05-08T20:00:53.168Z,17.30
2018-05-08T20:03:24.501Z,17.20
2018-05-08T20:05:54.712Z,17.00
2018-05-08T20:08:26.146Z,16.80
2018-05-08T20:10:57.112Z,16.70
2018-05-08T20:13:28.676Z,16.80
2018-05-08T20:15:59.313Z,17.10
2018-05-08T20:18:30.625Z,17.40
2018-05-08T20:21:01.752Z,17.40
2018-05-08T20:23:36.554Z,17.10
2018-05-08T20:26:09.113Z,17.00
2018-05-08T20:28:39.715Z,17.00
2018-05-08T20:31:09.996Z,16.70
2018-05-08T20:33:41.365Z,16.00
2018-05-08T20:36:11.927Z,15.90
2018-05-08T20:38:42.954Z,16.10
2018-05-08T20:41:13.436Z,16.10
2018-05-08T20:43:43.635Z,16.10
2018-05-08T20:46:14.373Z,16.00
2018-05-08T20:48:44.947Z,16.10
2018-05-08T20:51:15.418Z,16.30
2018-05-08T20:53:46.095Z,16.10
2018-05-08T20:56:42.592Z,15.80
2018-05-08T20:59:15.787Z,15.70
2018-05-08T21:01:46.757Z,15.70
2018-05-08T21:04:17.383Z,15.60
2018-05-08T21:06:48.387Z,15.80
2018-05-08T21:09:20.089Z,15.70
2018-05-08T21:11:50.409Z,15.60
2018-05-08T21:14:20.824Z,15.60
2018-05-08T21:16:51.645Z,15.70
2018-05-08T21:20:44.573Z,15.00
2018-05-08T21:23:15.031Z,14.90
2018-05-08T21:25:45.844Z,14.90
2018-05-08T21:28:19.426Z,15.10
2018-05-08T21:31:24.123Z,14.30
2018-05-08T21:33:53.588Z,14.30
2018-05-08T21:36:23.096Z,14.40
2018-05-08T21:38:53.287Z,14.20
2018-05-08T21:41:49.161Z,14.20
2018-05-08T21:44:18.563Z,14.40
2018-05-08T22:01:10.587Z,13.80
2018-05-08T22:03:40.755Z,13.80
2018-05-08T22:06:11.560Z,13.90
2018-05-08T22:08:43.305Z,14.10
2018-05-08T22:11:13.771Z,13.90
2018-05-08T22:13:45.590Z,14.50
2018-05-08T22:34:13.442Z,14.20
2018-05-08T22:36:42.851Z,14.30
2018-05-08T22:39:13.752Z,14.20
